createdAt,value
2022-11-08T00:00:52.028Z,12.60
2022-11-08T00:01:54.396Z,12.60
2022-11-08T00:02:56.091Z,12.60
2022-11-08T00:04:02.413Z,12.60
2022-11-08T00:05:23.354Z,12.60
2022-11-08T00:06:43.666Z,12.50
2022-11-08T00:08:04.188Z,12.50
2022-11-08T00:09:24.633Z,12.50
2022-11-08T00:10:44.922Z,12.50
2022-11-08T00:12:08.027Z,12.50
2022-11-08T00:13:28.430Z,12.50
2022-11-08T00:14:30.048Z,12.50
2022-11-08T00:15:38.202Z,12.50
2022-11-08T00:16:39.842Z,12.50
2022-11-08T00:17:41.507Z,12.50
2022-11-08T00:18:43.189Z,12.50
2022-11-08T00:19:45.282Z,12.50
2022-11-08T00:20:47.533Z,12.40
2022-11-08T00:21:49.128Z,12.40
2022-11-08T00:22:50.946Z,12.40
2022-11-08T00:23:52.977Z,12.40
2022-11-08T00:24:54.543Z,12.50
2022-11-08T00:25:56.160Z,12.50
2022-11-08T00:26:57.799Z,12.50
2022-11-08T00:27:59.411Z,12.50
2022-11-08T00:29:01.039Z,12.50
2022-11-08T00:30:02.954Z,12.50
2022-11-08T00:31:06.250Z,12.50
2022-11-08T00:32:11.262Z,12.50
2022-11-08T00:33:12.875Z,12.50
2022-11-08T00:34:14.485Z,12.50
2022-11-08T00:35:16.320Z,12.50
2022-11-08T00:36:17.947Z,12.50
2022-11-08T00:37:21.055Z,12.50
2022-11-08T00:38:22.665Z,12.50
2022-11-08T00:39:24.317Z,12.50
2022-11-08T00:40:25.946Z,12.50
2022-11-08T00:41:27.568Z,12.40
2022-11-08T00:42:29.328Z,12.40
2022-11-08T00:43:31.394Z,12.40
2022-11-08T00:44:33.019Z,12.30
2022-11-08T00:45:34.714Z,12.30
2022-11-08T00:46:37.499Z,12.30
2022-11-08T00:47:39.114Z,12.30
2022-11-08T00:48:40.740Z,12.30
2022-11-08T00:49:42.344Z,12.30
2022-11-08T00:50:43.967Z,12.20
2022-11-08T00:51:45.623Z,12.20
2022-11-08T00:52:47.209Z,12.20
2022-11-08T00:53:48.834Z,12.20
2022-11-08T00:54:50.453Z,12.20
2022-11-08T00:55:59.407Z,12.20
2022-11-08T00:57:01.036Z,12.20
2022-11-08T00:58:02.661Z,12.20
2022-11-08T00:59:04.291Z,12.20
2022-11-08T01:00:06.653Z,12.20
2022-11-08T01:01:10.375Z,12.20
2022-11-08T01:02:12.067Z,12.20
2022-11-08T01:03:19.814Z,12.30
2022-11-08T01:04:21.491Z,12.30
2022-11-08T01:05:23.175Z,12.20
2022-11-08T01:06:26.058Z,12.20
2022-11-08T01:07:27.647Z,12.30
2022-11-08T01:08:29.223Z,12.30
2022-11-08T01:09:30.814Z,12.30
2022-11-08T01:10:32.494Z,12.30
2022-11-08T01:11:34.491Z,12.40
2022-11-08T01:12:36.160Z,12.40
2022-11-08T01:13:38.108Z,12.40
2022-11-08T01:14:39.705Z,12.50
2022-11-08T01:15:43.599Z,12.50
2022-11-08T01:16:45.330Z,12.50
2022-11-08T01:17:46.998Z,12.50
2022-11-08T01:18:50.106Z,12.50
2022-11-08T01:19:51.889Z,12.50
2022-11-08T01:20:53.484Z,12.50
2022-11-08T01:21:55.108Z,12.50
2022-11-08T01:22:56.764Z,12.50
2022-11-08T01:23:58.380Z,12.50
2022-11-08T01:25:00.393Z,12.60
2022-11-08T01:26:05.625Z,12.60
2022-11-08T01:27:07.286Z,12.60
2022-11-08T01:28:11.448Z,12.60
2022-11-08T01:29:13.049Z,12.60
2022-11-08T01:30:14.777Z,12.60
2022-11-08T01:31:23.084Z,12.60
2022-11-08T01:32:24.905Z,12.60
2022-11-08T01:33:26.866Z,12.60
2022-11-08T01:34:28.458Z,12.60
2022-11-08T01:35:34.404Z,12.60
2022-11-08T01:36:36.945Z,12.60
2022-11-08T01:37:38.571Z,12.70
2022-11-08T01:38:40.877Z,12.70
2022-11-08T01:39:42.492Z,12.70
2022-11-08T01:40:47.745Z,12.70
2022-11-08T01:41:49.408Z,12.70
2022-11-08T01:42:51.204Z,12.70
2022-11-08T01:43:58.351Z,12.70
2022-11-08T01:45:07.627Z,12.70
2022-11-08T01:46:18.481Z,12.70
2022-11-08T01:47:20.057Z,12.80
2022-11-08T01:48:22.754Z,12.80
2022-11-08T01:49:27.306Z,12.70
2022-11-08T01:50:29.077Z,12.70
2022-11-08T01:51:40.404Z,12.70
2022-11-08T01:52:48.731Z,12.70
2022-11-08T01:53:51.136Z,12.70
2022-11-08T01:55:04.786Z,12.70
2022-11-08T01:56:08.200Z,12.60
2022-11-08T01:57:14.394Z,12.60
2022-11-08T01:58:20.702Z,12.60
2022-11-08T01:59:23.066Z,12.60
2022-11-08T02:00:24.994Z,12.60
2022-11-08T02:01:26.755Z,12.60
2022-11-08T02:02:28.788Z,12.50
2022-11-08T02:03:34.241Z,12.50
2022-11-08T02:04:37.527Z,12.50
2022-11-08T02:05:40.119Z,12.50
2022-11-08T02:06:43.387Z,12.50
2022-11-08T02:07:45.032Z,12.40
2022-11-08T02:08:47.047Z,12.40
2022-11-08T02:09:48.726Z,12.40
2022-11-08T02:10:52.691Z,12.30
2022-11-08T02:11:55.120Z,12.30
2022-11-08T02:12:57.366Z,12.30
2022-11-08T02:13:59.335Z,12.30
2022-11-08T02:15:01.174Z,12.30
2022-11-08T02:16:03.181Z,12.20
2022-11-08T02:17:06.277Z,12.20
2022-11-08T02:18:08.047Z,12.20
2022-11-08T02:19:17.556Z,12.10
2022-11-08T02:20:19.435Z,12.10
2022-11-08T02:21:27.551Z,12.10
2022-11-08T02:22:40.534Z,12.10
2022-11-08T02:23:53.674Z,12.10
2022-11-08T02:24:58.346Z,12.10
2022-11-08T02:25:59.999Z,12.20
2022-11-08T02:27:02.328Z,12.20
2022-11-08T02:28:04.107Z,12.10
2022-11-08T02:29:30.613Z,12.20
2022-11-08T02:30:37.585Z,12.20
2022-11-08T02:31:39.174Z,12.10
2022-11-08T02:32:41.750Z,12.10
2022-11-08T02:33:44.144Z,12.10
2022-11-08T02:34:51.153Z,12.10
2022-11-08T02:35:55.835Z,12.10
2022-11-08T02:36:58.447Z,12.00
2022-11-08T02:38:00.104Z,12.00
2022-11-08T02:39:02.213Z,12.10
2022-11-08T02:40:04.981Z,12.10
2022-11-08T02:41:07.205Z,12.10
2022-11-08T02:42:14.186Z,12.10
2022-11-08T02:43:16.208Z,12.00
2022-11-08T02:44:17.806Z,12.00
2022-11-08T02:45:19.488Z,12.00
2022-11-08T02:46:21.075Z,12.00
2022-11-08T02:47:24.070Z,12.00
2022-11-08T02:48:26.469Z,12.00
2022-11-08T02:49:28.403Z,11.90
2022-11-08T02:50:30.016Z,11.90
2022-11-08T02:51:31.666Z,11.90
2022-11-08T02:52:33.529Z,11.80
2022-11-08T02:53:35.215Z,11.80
2022-11-08T02:54:36.945Z,11.80
2022-11-08T02:55:38.784Z,11.80
2022-11-08T02:56:41.225Z,11.80
2022-11-08T02:57:42.833Z,11.80
2022-11-08T02:58:44.421Z,11.80
2022-11-08T02:59:46.014Z,11.80
2022-11-08T03:00:47.630Z,11.80
2022-11-08T03:01:49.417Z,11.80
2022-11-08T03:02:54.832Z,11.80
2022-11-08T03:03:56.531Z,11.80
2022-11-08T03:04:58.114Z,11.80
2022-11-08T03:05:59.751Z,11.80
2022-11-08T03:07:01.379Z,11.80
2022-11-08T03:08:03.214Z,11.80
2022-11-08T03:09:05.039Z,11.70
2022-11-08T03:10:06.887Z,11.80
2022-11-08T03:11:08.562Z,11.80
2022-11-08T03:12:10.180Z,11.80
2022-11-08T03:13:11.792Z,11.80
2022-11-08T03:14:13.387Z,11.80
2022-11-08T03:15:15.164Z,11.80
2022-11-08T03:16:16.963Z,11.80
2022-11-08T03:17:18.591Z,11.80
2022-11-08T03:18:20.485Z,11.80
2022-11-08T03:19:22.209Z,11.80
2022-11-08T03:20:28.255Z,11.80
2022-11-08T03:21:35.663Z,11.80
2022-11-08T03:22:37.266Z,11.80
2022-11-08T03:23:39.021Z,11.80
2022-11-08T03:24:40.834Z,11.80
2022-11-08T03:25:42.446Z,11.70
2022-11-08T03:26:44.325Z,11.70
2022-11-08T03:27:45.919Z,11.70
2022-11-08T03:28:47.565Z,11.70
2022-11-08T03:29:49.977Z,11.70
2022-11-08T03:30:53.037Z,11.70
2022-11-08T03:31:54.858Z,11.70
2022-11-08T03:32:56.507Z,11.70
2022-11-08T03:33:58.103Z,11.70
2022-11-08T03:35:00.849Z,11.60
2022-11-08T03:36:02.541Z,11.60
2022-11-08T03:37:09.287Z,11.60
2022-11-08T03:38:10.860Z,11.60
2022-11-08T03:39:12.545Z,11.60
2022-11-08T03:40:14.356Z,11.60
2022-11-08T03:41:15.965Z,11.60
2022-11-08T03:42:17.613Z,11.60
2022-11-08T03:43:19.325Z,11.60
2022-11-08T03:44:20.940Z,11.50
2022-11-08T03:45:22.774Z,11.50
2022-11-08T03:46:24.443Z,11.50
2022-11-08T03:47:26.093Z,11.50
2022-11-08T03:48:28.146Z,11.50
2022-11-08T03:49:29.778Z,11.40
2022-11-08T03:50:31.431Z,11.40
2022-11-08T03:51:33.032Z,11.40
2022-11-08T03:52:44.849Z,11.40
2022-11-08T03:53:46.439Z,11.40
2022-11-08T03:54:48.007Z,11.40
2022-11-08T03:55:49.599Z,11.40
2022-11-08T03:56:51.203Z,11.40
2022-11-08T03:57:53.966Z,11.40
2022-11-08T03:58:55.551Z,11.40
2022-11-08T03:59:57.133Z,11.30
2022-11-08T04:01:02.702Z,11.30
2022-11-08T04:02:04.410Z,11.20
2022-11-08T04:03:06.268Z,11.20
2022-11-08T04:04:08.281Z,11.20
2022-11-08T04:05:11.400Z,11.20
2022-11-08T04:06:13.008Z,11.20
2022-11-08T04:07:14.748Z,11.20
2022-11-08T04:08:16.724Z,11.10
2022-11-08T04:09:21.543Z,11.10
2022-11-08T04:10:23.422Z,11.10
2022-11-08T04:11:43.700Z,11.10
2022-11-08T04:13:04.329Z,11.10
2022-11-08T04:14:24.938Z,11.10
2022-11-08T04:15:28.278Z,11.10
2022-11-08T04:16:33.422Z,11.10
2022-11-08T04:17:53.511Z,11.10
2022-11-08T04:19:13.812Z,11.10
2022-11-08T04:20:34.331Z,11.10
2022-11-08T04:21:35.939Z,11.10
2022-11-08T04:22:37.530Z,11.10
2022-11-08T04:23:39.200Z,11.00
2022-11-08T04:24:40.902Z,11.00
2022-11-08T04:25:43.518Z,11.10
2022-11-08T04:26:45.201Z,11.00
2022-11-08T04:27:46.802Z,11.00
2022-11-08T04:28:48.533Z,11.00
2022-11-08T04:29:50.165Z,10.90
2022-11-08T04:31:00.288Z,10.90
2022-11-08T04:32:01.932Z,11.00
2022-11-08T04:33:05.009Z,11.00
2022-11-08T04:34:07.021Z,11.00
2022-11-08T04:35:08.671Z,11.00
2022-11-08T04:36:13.702Z,11.00
2022-11-08T04:37:15.381Z,11.00
2022-11-08T04:38:17.691Z,11.00
2022-11-08T04:39:19.584Z,11.00
2022-11-08T04:40:21.164Z,11.00
2022-11-08T04:41:24.551Z,11.00
2022-11-08T04:42:26.230Z,10.90
2022-11-08T04:43:28.185Z,10.90
2022-11-08T04:44:29.825Z,10.90
2022-11-08T04:45:31.450Z,10.90
2022-11-08T04:46:33.067Z,10.90
2022-11-08T04:47:39.413Z,10.90
2022-11-08T04:48:43.767Z,10.90
2022-11-08T04:49:45.376Z,11.00
2022-11-08T04:50:47.004Z,11.00
2022-11-08T04:51:48.614Z,11.00
2022-11-08T04:52:55.124Z,11.00
2022-11-08T04:54:00.624Z,11.00
2022-11-08T04:55:02.250Z,11.00
2022-11-08T04:56:06.972Z,10.90
2022-11-08T04:57:08.621Z,10.90
2022-11-08T04:58:10.221Z,10.90
2022-11-08T04:59:12.373Z,10.90
2022-11-08T05:00:15.341Z,10.90
2022-11-08T05:01:19.686Z,10.90
2022-11-08T05:02:21.417Z,10.90
2022-11-08T05:03:23.145Z,10.90
2022-11-08T05:04:24.740Z,10.90
2022-11-08T05:05:26.336Z,10.90
2022-11-08T05:06:31.298Z,10.90
2022-11-08T05:07:33.314Z,10.90
2022-11-08T05:08:34.939Z,10.90
2022-11-08T05:09:36.557Z,10.90
2022-11-08T05:10:38.186Z,10.90
2022-11-08T05:11:39.775Z,10.90
2022-11-08T05:12:41.463Z,10.90
2022-11-08T05:13:43.871Z,10.90
2022-11-08T05:14:45.462Z,10.90
2022-11-08T05:15:47.066Z,10.90
2022-11-08T05:16:48.909Z,10.90
2022-11-08T05:17:50.581Z,10.90
2022-11-08T05:18:52.807Z,10.90
2022-11-08T05:20:12.992Z,10.90
2022-11-08T05:21:36.035Z,10.90
2022-11-08T05:22:56.425Z,10.80
2022-11-08T05:23:59.165Z,10.80
2022-11-08T05:25:00.764Z,10.80
2022-11-08T05:26:02.500Z,10.90
2022-11-08T05:27:04.155Z,10.90
2022-11-08T05:28:05.893Z,10.90
2022-11-08T05:29:07.494Z,10.80
2022-11-08T05:30:09.434Z,10.80
2022-11-08T05:31:11.793Z,10.80
2022-11-08T05:32:16.080Z,10.80
2022-11-08T05:33:17.847Z,10.80
2022-11-08T05:34:19.427Z,10.80
2022-11-08T05:35:22.863Z,10.90
2022-11-08T05:36:24.445Z,10.90
2022-11-08T05:37:26.070Z,10.90
2022-11-08T05:38:27.688Z,10.90
2022-11-08T05:39:32.054Z,10.90
2022-11-08T05:40:34.255Z,10.90
2022-11-08T05:41:35.942Z,10.90
2022-11-08T05:42:37.561Z,10.80
2022-11-08T05:43:40.145Z,10.90
2022-11-08T05:44:41.760Z,10.80
2022-11-08T05:45:45.536Z,10.80
2022-11-08T05:46:47.173Z,10.90
2022-11-08T05:47:49.434Z,10.90
2022-11-08T05:48:51.229Z,10.80
2022-11-08T05:49:53.289Z,10.90
2022-11-08T05:50:55.317Z,10.80
2022-11-08T05:51:56.955Z,10.90
2022-11-08T05:52:59.038Z,10.80
2022-11-08T05:54:00.739Z,10.80
2022-11-08T05:55:02.353Z,10.80
2022-11-08T05:56:04.609Z,10.80
2022-11-08T05:57:06.204Z,10.80
2022-11-08T05:58:08.378Z,10.80
2022-11-08T05:59:10.053Z,10.80
2022-11-08T06:00:13.042Z,10.80
2022-11-08T06:01:17.474Z,10.80
2022-11-08T06:02:19.167Z,10.80
2022-11-08T06:03:23.683Z,10.80
2022-11-08T06:04:25.743Z,10.80
2022-11-08T06:05:27.380Z,10.80
2022-11-08T06:06:29.055Z,10.80
2022-11-08T06:07:30.692Z,10.80
2022-11-08T06:08:32.384Z,10.80
2022-11-08T06:09:34.043Z,10.80
2022-11-08T06:10:35.711Z,10.70
2022-11-08T06:11:37.538Z,10.70
2022-11-08T06:12:39.224Z,10.70
2022-11-08T06:13:41.199Z,10.80
2022-11-08T06:14:42.857Z,10.80
2022-11-08T06:15:44.536Z,10.70
2022-11-08T06:16:46.151Z,10.70
2022-11-08T06:17:47.754Z,10.80
2022-11-08T06:18:49.642Z,10.80
2022-11-08T06:19:51.346Z,10.80
2022-11-08T06:20:52.936Z,10.70
2022-11-08T06:21:54.535Z,10.70
2022-11-08T06:22:56.299Z,10.70
2022-11-08T06:23:57.962Z,10.70
2022-11-08T06:24:59.757Z,10.80
2022-11-08T06:26:01.436Z,10.80
2022-11-08T06:27:03.330Z,10.80
2022-11-08T06:28:05.435Z,10.80
2022-11-08T06:29:07.009Z,10.70
2022-11-08T06:30:09.466Z,10.70
2022-11-08T06:31:11.389Z,10.60
2022-11-08T06:32:12.994Z,10.60
2022-11-08T06:33:15.435Z,10.60
2022-11-08T06:34:17.286Z,10.60
2022-11-08T06:35:19.079Z,10.60
2022-11-08T06:36:21.449Z,10.60
2022-11-08T06:37:23.066Z,10.60
2022-11-08T06:38:24.768Z,10.70
2022-11-08T06:39:26.516Z,10.70
2022-11-08T06:40:28.425Z,10.70
2022-11-08T06:41:30.365Z,10.60
2022-11-08T06:42:32.050Z,10.60
2022-11-08T06:43:34.070Z,10.60
2022-11-08T06:44:35.835Z,10.60
2022-11-08T06:45:38.492Z,10.50
2022-11-08T06:46:40.079Z,10.50
2022-11-08T06:47:41.668Z,10.60
2022-11-08T06:48:43.274Z,10.70
2022-11-08T06:49:46.355Z,10.70
2022-11-08T06:50:48.435Z,10.70
2022-11-08T06:51:51.166Z,10.60
2022-11-08T06:52:57.121Z,10.60
2022-11-08T06:53:59.207Z,10.60
2022-11-08T06:55:00.927Z,10.60
2022-11-08T06:56:03.304Z,10.70
2022-11-08T06:57:04.986Z,10.70
2022-11-08T06:58:06.789Z,10.70
2022-11-08T06:59:09.373Z,10.70
2022-11-08T07:00:11.695Z,10.80
2022-11-08T07:01:13.699Z,10.80
2022-11-08T07:02:15.466Z,10.80
2022-11-08T07:03:18.356Z,10.80
2022-11-08T07:04:20.289Z,10.80
2022-11-08T07:05:21.942Z,10.80
2022-11-08T07:06:23.618Z,10.80
2022-11-08T07:07:25.207Z,10.80
2022-11-08T07:08:26.900Z,10.80
2022-11-08T07:09:28.711Z,10.80
2022-11-08T07:10:32.295Z,10.80
2022-11-08T07:11:33.952Z,10.70
2022-11-08T07:12:35.576Z,10.70
2022-11-08T07:13:37.239Z,10.70
2022-11-08T07:14:38.942Z,10.70
2022-11-08T07:15:41.352Z,10.70
2022-11-08T07:16:43.104Z,10.70
2022-11-08T07:17:44.815Z,10.60
2022-11-08T07:18:46.546Z,10.60
2022-11-08T07:19:48.380Z,10.60
2022-11-08T07:20:50.109Z,10.60
2022-11-08T07:21:51.743Z,10.60
2022-11-08T07:22:56.730Z,10.60
2022-11-08T07:23:58.370Z,10.60
2022-11-08T07:24:59.966Z,10.60
2022-11-08T07:26:03.611Z,10.50
2022-11-08T07:27:05.284Z,10.50
2022-11-08T07:28:11.898Z,10.50
2022-11-08T07:29:15.941Z,10.50
2022-11-08T07:30:18.039Z,10.50
2022-11-08T07:31:19.906Z,10.50
2022-11-08T07:32:21.840Z,10.50
2022-11-08T07:33:23.465Z,10.50
2022-11-08T07:34:25.132Z,10.50
2022-11-08T07:35:27.927Z,10.50
2022-11-08T07:36:29.584Z,10.50
2022-11-08T07:37:32.241Z,10.50
2022-11-08T07:38:33.887Z,10.50
2022-11-08T07:39:35.481Z,10.50
2022-11-08T07:40:37.118Z,10.50
2022-11-08T07:41:38.706Z,10.60
2022-11-08T07:43:09.556Z,10.60
2022-11-08T07:44:03.125Z,10.60
2022-11-08T07:45:06.158Z,10.60
2022-11-08T07:46:07.843Z,10.70
2022-11-08T07:47:09.504Z,10.70
2022-11-08T07:48:13.862Z,10.70
2022-11-08T07:49:15.610Z,10.70
2022-11-08T07:50:18.092Z,10.70
2022-11-08T07:51:19.879Z,10.70
2022-11-08T07:52:21.566Z,10.80
2022-11-08T07:53:23.420Z,10.80
2022-11-08T07:54:25.040Z,10.80
2022-11-08T07:55:27.478Z,10.90
2022-11-08T07:56:29.164Z,10.90
2022-11-08T07:57:30.801Z,11.00
2022-11-08T07:58:32.500Z,11.00
2022-11-08T07:59:34.123Z,11.00
2022-11-08T08:00:40.273Z,11.10
2022-11-08T08:01:42.109Z,11.10
2022-11-08T08:02:43.959Z,11.20
2022-11-08T08:03:45.617Z,11.20
2022-11-08T08:04:47.228Z,11.30
2022-11-08T08:05:57.939Z,11.30
2022-11-08T08:07:01.290Z,11.30
2022-11-08T08:08:03.787Z,11.30
2022-11-08T08:09:05.474Z,11.30
2022-11-08T08:10:07.512Z,11.30
2022-11-08T08:11:09.687Z,11.30
2022-11-08T08:12:11.366Z,11.40
2022-11-08T08:13:13.058Z,11.40
2022-11-08T08:14:14.865Z,11.50
2022-11-08T08:15:16.594Z,11.50
2022-11-08T08:16:18.195Z,11.50
2022-11-08T08:17:19.846Z,11.50
2022-11-08T08:18:21.691Z,11.50
2022-11-08T08:19:23.315Z,11.50
2022-11-08T08:20:24.938Z,11.60
2022-11-08T08:21:26.580Z,11.60
2022-11-08T08:22:29.140Z,11.60
2022-11-08T08:23:30.931Z,11.60
2022-11-08T08:24:32.633Z,11.50
2022-11-08T08:25:34.484Z,11.50
2022-11-08T08:26:36.145Z,11.50
2022-11-08T08:27:37.793Z,11.50
2022-11-08T08:28:39.510Z,11.50
2022-11-08T08:29:41.346Z,11.40
2022-11-08T08:30:42.924Z,11.50
2022-11-08T08:31:44.599Z,11.50
2022-11-08T08:32:53.389Z,11.50
2022-11-08T08:34:04.316Z,11.50
2022-11-08T08:35:06.076Z,11.60
2022-11-08T08:36:07.910Z,11.60
2022-11-08T08:37:10.150Z,11.60
2022-11-08T08:38:13.380Z,11.70
2022-11-08T08:39:15.034Z,11.60
2022-11-08T08:40:16.907Z,11.70
2022-11-08T08:41:18.553Z,11.70
2022-11-08T08:42:20.172Z,11.80
2022-11-08T08:43:22.270Z,11.80
2022-11-08T08:44:24.105Z,11.80
2022-11-08T08:45:27.031Z,11.80
2022-11-08T08:46:28.614Z,11.90
2022-11-08T08:47:30.194Z,12.00
2022-11-08T08:48:33.209Z,12.10
2022-11-08T08:49:34.782Z,12.20
2022-11-08T08:50:36.423Z,12.20
2022-11-08T08:51:38.040Z,12.20
2022-11-08T08:52:40.530Z,12.30
2022-11-08T08:53:42.159Z,12.30
2022-11-08T08:54:43.756Z,12.30
2022-11-08T08:55:45.520Z,12.40
2022-11-08T08:56:47.107Z,12.50
2022-11-08T08:57:48.874Z,12.50
2022-11-08T09:02:41.504Z,12.70
2022-11-08T09:03:44.332Z,12.80
2022-11-08T09:04:45.912Z,12.80
2022-11-08T09:05:47.616Z,12.80
2022-11-08T09:06:49.271Z,12.90
2022-11-08T09:07:55.689Z,12.90
2022-11-08T09:08:57.273Z,12.90
2022-11-08T09:09:58.908Z,12.90
2022-11-08T09:11:01.650Z,13.00
2022-11-08T09:12:03.684Z,13.00
2022-11-08T09:13:05.602Z,13.10
2022-11-08T09:14:07.251Z,13.10
2022-11-08T09:15:10.099Z,13.10
2022-11-08T09:16:13.609Z,13.20
2022-11-08T09:17:15.200Z,13.20
2022-11-08T09:18:17.533Z,13.20
2022-11-08T09:19:19.225Z,13.20
2022-11-08T09:20:21.120Z,13.20
2022-11-08T09:21:22.789Z,13.30
2022-11-08T09:22:24.477Z,13.40
2022-11-08T09:23:26.189Z,13.40
2022-11-08T09:24:27.779Z,13.40
2022-11-08T09:25:29.604Z,13.40
2022-11-08T09:26:31.275Z,13.40
2022-11-08T09:27:33.469Z,13.40
2022-11-08T09:28:36.385Z,13.50
2022-11-08T09:29:37.970Z,13.50
2022-11-08T09:30:39.581Z,13.60
2022-11-08T09:31:41.287Z,13.60
2022-11-08T09:35:10.974Z,13.60
2022-11-08T09:36:13.709Z,13.60
2022-11-08T09:37:15.325Z,13.60
2022-11-08T09:38:17.499Z,13.60
2022-11-08T09:39:19.376Z,13.70
2022-11-08T09:40:26.983Z,13.80
2022-11-08T09:42:08.472Z,13.80
2022-11-08T09:43:37.731Z,13.90
2022-11-08T09:45:06.873Z,14.00
2022-11-08T09:46:11.499Z,14.30
2022-11-08T09:47:34.646Z,14.70
2022-11-08T09:48:40.388Z,15.50
2022-11-08T09:49:46.900Z,16.10
2022-11-08T09:50:52.057Z,16.90
2022-11-08T09:51:54.039Z,17.40
2022-11-08T09:53:16.772Z,18.00
2022-11-08T09:54:27.902Z,18.10
2022-11-08T09:56:06.185Z,18.40
2022-11-08T09:57:18.011Z,18.20
2022-11-08T09:58:44.537Z,17.80
2022-11-08T09:59:50.418Z,16.90
2022-11-08T10:00:53.184Z,16.50
2022-11-08T10:01:54.949Z,16.00
2022-11-08T10:02:57.241Z,15.70
2022-11-08T10:04:02.852Z,15.40
2022-11-08T10:05:09.378Z,15.20
2022-11-08T10:06:19.728Z,15.10
2022-11-08T10:07:35.219Z,15.00
2022-11-08T10:08:46.631Z,14.80
2022-11-08T10:10:24.580Z,15.00
2022-11-08T10:11:54.767Z,15.50
2022-11-08T10:13:21.113Z,15.80
2022-11-08T10:14:56.908Z,15.80
2022-11-08T10:16:16.087Z,15.50
2022-11-08T10:17:46.236Z,15.30
2022-11-08T10:19:15.862Z,15.10
2022-11-08T10:20:30.838Z,15.00
2022-11-08T10:21:32.421Z,15.10
2022-11-08T10:22:39.874Z,15.60
2022-11-08T10:24:03.309Z,16.00
2022-11-08T10:25:33.222Z,16.10
2022-11-08T10:26:47.988Z,16.10
2022-11-08T10:27:52.587Z,15.90
2022-11-08T10:29:03.044Z,15.70
2022-11-08T10:30:13.511Z,15.90
2022-11-08T10:31:16.131Z,15.90
2022-11-08T10:32:23.179Z,16.00
2022-11-08T10:33:32.459Z,16.20
2022-11-08T10:34:43.892Z,16.50
2022-11-08T10:36:01.776Z,16.90
2022-11-08T10:37:06.586Z,17.40
2022-11-08T10:38:20.093Z,17.90
2022-11-08T10:39:25.616Z,18.40
2022-11-08T10:40:52.400Z,18.60
2022-11-08T10:42:12.465Z,18.70
2022-11-08T10:43:30.144Z,18.90
2022-11-08T10:44:33.279Z,19.10
2022-11-08T10:45:34.874Z,19.10
2022-11-08T10:46:49.720Z,19.10
2022-11-08T10:47:53.071Z,19.10
2022-11-08T10:48:59.979Z,19.10
2022-11-08T10:50:06.014Z,18.80
2022-11-08T10:51:08.029Z,18.60
2022-11-08T10:52:12.597Z,18.50
2022-11-08T10:53:24.151Z,18.50
2022-11-08T10:54:44.213Z,18.60
2022-11-08T10:55:52.296Z,18.60
2022-11-08T10:56:55.802Z,18.70
2022-11-08T10:57:57.448Z,18.60
2022-11-08T10:58:59.073Z,18.60
2022-11-08T11:00:17.811Z,18.20
2022-11-08T11:01:24.261Z,18.10
2022-11-08T11:02:33.717Z,17.90
2022-11-08T11:03:35.387Z,17.80
2022-11-08T11:04:36.969Z,17.80
2022-11-08T11:05:42.493Z,17.80
2022-11-08T11:06:44.105Z,17.70
2022-11-08T11:08:01.953Z,17.60
2022-11-08T11:09:18.635Z,17.40
2022-11-08T11:10:28.131Z,17.10
2022-11-08T11:11:32.691Z,17.00
2022-11-08T11:12:34.268Z,16.80
2022-11-08T11:13:35.846Z,16.90
2022-11-08T11:14:37.611Z,16.90
2022-11-08T11:15:50.932Z,16.90
2022-11-08T11:16:58.146Z,17.00
2022-11-08T11:17:59.973Z,17.00
2022-11-08T11:19:04.118Z,17.10
2022-11-08T11:20:06.190Z,17.20
2022-11-08T11:21:20.805Z,17.20
2022-11-08T11:22:33.575Z,17.30
2022-11-08T11:24:05.922Z,17.40
2022-11-08T11:25:15.606Z,17.80
2022-11-08T11:26:28.677Z,18.00
2022-11-08T11:27:36.156Z,18.10
2022-11-08T11:28:37.807Z,18.30
2022-11-08T11:29:39.556Z,18.20
2022-11-08T11:30:42.149Z,18.00
2022-11-08T11:31:46.856Z,18.00
2022-11-08T11:32:58.567Z,17.80
2022-11-08T11:34:18.082Z,17.90
2022-11-08T11:35:20.676Z,17.80
2022-11-08T11:36:24.912Z,18.00
2022-11-08T11:37:45.851Z,18.10
2022-11-08T11:39:06.829Z,18.40
2022-11-08T11:40:33.874Z,18.40
2022-11-08T11:41:45.328Z,18.50
2022-11-08T11:43:10.765Z,18.60
2022-11-08T11:44:35.536Z,18.60
2022-11-08T11:45:45.414Z,18.90
2022-11-08T11:47:02.601Z,18.70
2022-11-08T11:48:24.482Z,18.80
2022-11-08T11:49:29.127Z,19.00
2022-11-08T11:50:38.624Z,18.90
2022-11-08T11:51:40.345Z,19.30
2022-11-08T11:52:41.980Z,19.40
2022-11-08T11:53:48.618Z,19.50
2022-11-08T11:54:50.796Z,19.80
2022-11-08T11:56:18.697Z,19.60
2022-11-08T11:57:32.106Z,19.70
2022-11-08T11:58:51.965Z,19.50
2022-11-08T12:00:07.007Z,19.70
2022-11-08T12:01:22.120Z,20.00
2022-11-08T12:02:38.781Z,20.20
2022-11-08T12:04:05.657Z,20.20
2022-11-08T12:05:22.324Z,20.40
2022-11-08T12:06:44.770Z,20.50
2022-11-08T12:07:59.879Z,20.50
2022-11-08T12:09:35.221Z,20.40
2022-11-08T12:11:09.668Z,20.50
2022-11-08T12:12:43.142Z,21.00
2022-11-08T12:13:44.694Z,21.30
2022-11-08T12:14:49.410Z,21.30
2022-11-08T12:16:00.996Z,20.80
2022-11-08T12:17:14.072Z,20.60
2022-11-08T12:18:42.832Z,20.40
2022-11-08T12:20:02.762Z,20.10
2022-11-08T12:21:25.144Z,20.00
2022-11-08T12:22:47.730Z,19.70
2022-11-08T12:24:20.302Z,19.70
2022-11-08T12:25:41.078Z,19.50
2022-11-08T12:27:03.965Z,19.60
2022-11-08T12:28:22.955Z,19.70
2022-11-08T12:29:47.576Z,19.50
2022-11-08T12:31:33.651Z,19.60
2022-11-08T12:33:03.827Z,19.80
2022-11-08T12:34:23.804Z,19.80
2022-11-08T12:35:38.811Z,19.80
2022-11-08T12:36:55.300Z,19.80
2022-11-08T12:38:29.138Z,19.70
2022-11-08T12:39:34.338Z,19.50
2022-11-08T12:40:53.611Z,19.60
2022-11-08T12:42:18.962Z,19.30
2022-11-08T12:43:54.550Z,19.30
2022-11-08T12:45:14.955Z,19.00
2022-11-08T12:46:20.321Z,18.70
2022-11-08T12:47:29.194Z,18.50
2022-11-08T12:49:06.919Z,18.50
2022-11-08T12:50:46.163Z,18.30
2022-11-08T12:51:59.934Z,18.30
2022-11-08T12:53:23.488Z,18.30
2022-11-08T12:54:35.652Z,18.30
2022-11-08T12:55:39.462Z,18.30
2022-11-08T12:56:46.003Z,18.40
2022-11-08T12:57:48.298Z,18.40
2022-11-08T12:58:51.764Z,18.50
2022-11-08T13:00:04.464Z,18.50
2022-11-08T13:01:11.011Z,18.30
2022-11-08T13:02:29.690Z,18.30
2022-11-08T13:03:46.353Z,18.30
2022-11-08T13:04:55.724Z,18.10
2022-11-08T13:06:15.011Z,18.10
2022-11-08T13:07:25.773Z,18.20
2022-11-08T13:08:35.571Z,18.10
2022-11-08T13:10:11.090Z,18.20
2022-11-08T13:11:22.245Z,18.30
2022-11-08T13:12:29.843Z,18.20
2022-11-08T13:13:48.807Z,18.30
2022-11-08T13:14:50.890Z,18.40
2022-11-08T13:16:15.795Z,18.50
2022-11-08T13:17:19.560Z,18.70
2022-11-08T13:18:24.270Z,18.70
2022-11-08T13:19:49.803Z,18.80
2022-11-08T13:20:51.780Z,18.80
2022-11-08T13:21:53.562Z,19.00
2022-11-08T13:22:59.493Z,19.10
2022-11-08T13:24:30.832Z,19.10
2022-11-08T13:25:28.701Z,19.10
2022-11-08T13:26:32.939Z,18.90
2022-11-08T13:27:48.454Z,18.90
2022-11-08T13:28:51.753Z,18.80
2022-11-08T13:29:58.014Z,18.70
2022-11-08T13:31:08.964Z,18.50
2022-11-08T13:32:23.993Z,18.40
2022-11-08T13:33:30.469Z,18.40
2022-11-08T13:34:58.644Z,18.20
2022-11-08T13:36:26.123Z,18.10
2022-11-08T13:37:48.480Z,18.00
2022-11-08T13:38:50.028Z,17.90
2022-11-08T13:40:12.982Z,17.80
2022-11-08T13:41:22.895Z,17.70
2022-11-08T13:42:24.413Z,17.60
2022-11-08T13:43:31.297Z,17.60
2022-11-08T13:44:54.350Z,17.50
2022-11-08T13:45:56.742Z,17.40
2022-11-08T13:46:58.339Z,17.40
2022-11-08T13:48:22.344Z,17.40
2022-11-08T13:49:24.337Z,17.40
2022-11-08T13:50:34.353Z,17.40
2022-11-08T13:51:40.230Z,17.30
2022-11-08T13:52:46.592Z,17.30
2022-11-08T13:53:51.459Z,17.30
2022-11-08T13:54:53.709Z,17.30
2022-11-08T13:56:18.673Z,17.20
2022-11-08T13:57:41.000Z,17.20
2022-11-08T13:58:43.788Z,17.20
2022-11-08T13:59:45.315Z,17.20
2022-11-08T14:00:47.138Z,17.10
2022-11-08T14:01:48.774Z,17.10
2022-11-08T14:02:50.371Z,17.10
2022-11-08T14:03:59.085Z,17.10
2022-11-08T14:05:23.224Z,17.00
2022-11-08T14:06:50.140Z,17.00
2022-11-08T14:08:12.207Z,17.00
2022-11-08T14:09:36.548Z,17.10
2022-11-08T14:10:58.178Z,17.10
2022-11-08T14:12:20.767Z,17.10
2022-11-08T14:13:26.521Z,17.10
2022-11-08T14:14:41.602Z,17.20
2022-11-08T14:15:56.893Z,17.20
2022-11-08T14:17:26.224Z,17.10
2022-11-08T14:18:33.368Z,17.20
2022-11-08T14:19:40.381Z,17.20